LXV weather

Public forecast

Using degrees Fahrenheit for public forecast. Weather courtesy of forecast.io.

Current aviation weather report (METAR) for Lake County Airport

Retrieved 2020/08/10 03:53 UTC (1 hour ago):

KLXV 100353Z AUTO 03007G18KT 360V060 10SM CLR 16/M08 A3050 RMK AO2 SLP129 T01561078

Closest aviation forecast (TAF) to Lake County Airport

Closest forecast is Aspen-Pitkin Co/Sardy Field, 25.7 nm (47.6 km) W. Retrieved 2020-08-10 00:27 UTC (4 hours ago):

TAF KASE 092324Z 1000/1024 31008G18KT P6SM SCT120 BKN180 FM100200 20008KT P6SM FEW120 FM101400 VRB04KT P6SM FEW120 FM101800 33010G18KT P6SM SCT120